Time;durP1;ratioP1;P1;durP2;ratioP2;P2;SDS_P1;SDS_P2;PMS_P1;PMS_P2;Temp;Humidity;BMP_temperature;BMP_pressure;BME280_temperature;BME280_humidity;BME280_pressure;Samples;Min_cycle;Max_cycle;Signal;HPM_P1;HPM_P2
2021/07/20 00:00:28;;;;;;;1.65;1.05;;;;;;;16.14;100.00;100321.06;5054759;28;20512;-58
2021/07/20 00:03:31;;;;;;;3.03;0.40;;;;;;;16.12;100.00;100315.16;5054652;28;20052;-57
2021/07/20 00:06:35;;;;;;;1.35;0.80;;;;;;;16.10;100.00;100312.88;5054443;28;20071;-57
2021/07/20 00:09:38;;;;;;;1.95;0.73;;;;;;;16.10;100.00;100310.06;5054241;28;20060;-58
2021/07/20 00:12:42;;;;;;;3.00;0.93;;;;;;;16.08;100.00;100309.78;5062301;28;20064;-58
2021/07/20 00:15:46;;;;;;;1.88;0.75;;;;;;;16.02;100.00;100311.81;5073895;28;20067;-57
2021/07/20 00:18:49;;;;;;;3.72;1.15;;;;;;;16.01;100.00;100306.66;5074024;28;20052;-58
2021/07/20 00:21:53;;;;;;;0.90;0.50;;;;;;;15.90;100.00;100304.56;5074021;28;20059;-58
2021/07/20 00:24:56;;;;;;;2.95;1.05;;;;;;;15.85;100.00;100296.91;5073625;28;20067;-57
2021/07/20 00:28:00;;;;;;;2.85;0.88;;;;;;;15.81;100.00;100299.13;5073711;28;20055;-58
2021/07/20 00:31:04;;;;;;;6.38;0.73;;;;;;;15.80;100.00;100294.81;5074013;28;20059;-57
2021/07/20 00:34:08;;;;;;;7.57;1.40;;;;;;;15.74;100.00;100296.81;5073668;28;20068;-57
2021/07/20 00:37:12;;;;;;;5.68;1.30;;;;;;;15.64;100.00;100292.66;5072583;28;20063;-57
2021/07/20 00:40:18;;;;;;;3.17;0.95;;;;;;;15.61;100.00;100300.06;5073832;28;20503;-57
2021/07/20 00:43:22;;;;;;;2.05;0.30;;;;;;;15.59;100.00;100290.59;5073259;28;20060;-57
2021/07/20 00:46:25;;;;;;;8.75;0.88;;;;;;;15.51;100.00;100290.25;5073773;28;20059;-57
2021/07/20 00:49:29;;;;;;;10.05;0.85;;;;;;;15.50;100.00;100293.56;5073860;28;20059;-57
2021/07/20 00:52:33;;;;;;;12.10;1.17;;;;;;;15.47;100.00;100294.56;5073575;28;20049;-57
2021/07/20 00:55:37;;;;;;;4.53;0.82;;;;;;;15.46;100.00;100293.03;5073726;28;20056;-58
2021/07/20 00:58:40;;;;;;;2.08;0.85;;;;;;;15.42;100.00;100298.09;5073271;28;20424;-58
2021/07/20 01:01:45;;;;;;;3.28;0.85;;;;;;;15.41;100.00;100297.31;5073010;28;20067;-56
2021/07/20 01:04:48;;;;;;;1.60;0.55;;;;;;;15.41;100.00;100290.91;5073063;28;20063;-57
2021/07/20 01:07:54;;;;;;;1.60;0.75;;;;;;;15.41;100.00;100290.91;5073153;28;20047;-57
2021/07/20 01:11:01;;;;;;;1.58;0.77;;;;;;;15.40;100.00;100300.63;5073253;28;20075;-57
2021/07/20 01:14:06;;;;;;;5.57;1.00;;;;;;;15.37;100.00;100296.00;5073144;28;20071;-57
2021/07/20 01:17:11;;;;;;;4.05;1.08;;;;;;;15.30;100.00;100293.63;5073171;28;20068;-57
2021/07/20 01:20:18;;;;;;;5.80;0.57;;;;;;;15.23;100.00;100302.50;5072990;28;20072;-57
2021/07/20 01:23:34;;;;;;;4.47;1.17;;;;;;;15.14;100.00;100295.78;5072562;28;20059;-57
2021/07/20 01:26:38;;;;;;;3.55;0.43;;;;;;;15.13;100.00;100293.50;5072964;28;20071;-58
2021/07/20 01:29:42;;;;;;;3.75;0.68;;;;;;;15.08;100.00;100289.38;5073166;28;20055;-57
2021/07/20 01:32:47;;;;;;;2.22;0.68;;;;;;;15.04;100.00;100291.63;5072305;28;20059;-56
2021/07/20 01:35:52;;;;;;;2.05;0.52;;;;;;;14.95;100.00;100288.97;5072778;28;20385;-57
2021/07/20 01:38:57;;;;;;;1.95;0.90;;;;;;;14.90;100.00;100292.50;5072271;28;20051;-58
2021/07/20 01:42:02;;;;;;;1.65;0.45;;;;;;;14.87;100.00;100281.50;5072661;28;20059;-57
2021/07/20 01:45:07;;;;;;;1.20;0.68;;;;;;;14.90;100.00;100298.09;5072284;28;20055;-57
2021/07/20 01:48:11;;;;;;;4.88;0.70;;;;;;;14.93;100.00;100288.72;5071582;28;20603;-57
2021/07/20 01:51:14;;;;;;;2.28;0.70;;;;;;;14.90;100.00;100286.88;5072157;28;20056;-57
2021/07/20 01:54:18;;;;;;;3.58;0.80;;;;;;;14.86;100.00;100286.34;5071829;28;20405;-57
2021/07/20 01:57:22;;;;;;;2.72;1.23;;;;;;;14.88;100.00;100278.19;5071636;28;20059;-57
2021/07/20 02:00:26;;;;;;;8.63;1.50;;;;;;;14.87;100.00;100287.88;5072348;28;20055;-57
2021/07/20 02:10:13;;;;;;;3.50;0.77;;;;;;;14.65;100.00;100284.06;5071615;28;20048;-58
2021/07/20 02:13:20;;;;;;;0.50;0.28;;;;;;;14.64;100.00;100283.28;5070127;28;20067;-57
2021/07/20 02:16:27;;;;;;;3.38;0.90;;;;;;;14.63;100.00;100278.97;5071810;28;20071;-58
2021/07/20 02:19:58;;;;;;;2.22;0.30;;;;;;;14.60;100.00;100279.94;5071789;28;20051;-57
2021/07/20 02:23:02;;;;;;;3.70;0.82;;;;;;;14.60;100.00;100274.34;5071741;28;20047;-58
2021/07/20 02:26:06;;;;;;;1.65;0.60;;;;;;;14.60;100.00;100270.75;5071829;28;20052;-57
2021/07/20 02:29:11;;;;;;;2.20;0.80;;;;;;;14.58;100.00;100282.47;5070761;28;20523;-58
2021/07/20 02:32:16;;;;;;;4.05;0.60;;;;;;;14.51;100.00;100280.09;5071635;28;20519;-58
2021/07/20 02:35:22;;;;;;;3.00;0.68;;;;;;;14.47;100.00;100276.72;5071287;28;20052;-57
2021/07/20 02:38:27;;;;;;;6.93;0.75;;;;;;;14.45;100.00;100279.25;5071179;28;20071;-57
2021/07/20 02:41:31;;;;;;;0.75;0.52;;;;;;;14.46;100.00;100272.41;5070875;28;20055;-58
2021/07/20 02:44:38;;;;;;;4.00;1.25;;;;;;;14.48;100.00;100278.28;5071577;28;20051;-57
2021/07/20 02:47:42;;;;;;;2.38;1.23;;;;;;;14.44;100.00;100272.88;5071907;28;20052;-58
2021/07/20 02:50:46;;;;;;;3.63;1.05;;;;;;;14.42;100.00;100283.06;5071336;28;20507;-58
2021/07/20 02:53:53;;;;;;;2.28;0.50;;;;;;;14.39;100.00;100275.63;5071311;28;20072;-58
2021/07/20 02:56:57;;;;;;;3.83;0.95;;;;;;;14.38;100.00;100282.47;5071273;28;20440;-57
2021/07/20 03:00:00;;;;;;;3.10;0.98;;;;;;;14.36;100.00;100271.00;5070874;28;20389;-58
2021/07/20 03:03:04;;;;;;;3.45;1.63;;;;;;;14.33;100.00;100264.38;5071151;28;20059;-57
2021/07/20 03:06:10;;;;;;;3.05;0.98;;;;;;;14.34;100.00;100267.91;5071137;28;20075;-57
2021/07/20 03:09:15;;;;;;;3.47;1.33;;;;;;;14.33;100.00;100267.16;5070717;28;20059;-58
2021/07/20 03:12:22;;;;;;;2.55;0.40;;;;;;;14.30;100.00;100268.13;5070610;28;20063;-57
2021/07/20 03:15:26;;;;;;;5.63;1.48;;;;;;;14.33;100.00;100266.38;5071017;28;20063;-57
2021/07/20 03:18:30;;;;;;;1.85;1.27;;;;;;;14.26;100.00;100261.19;5071019;28;20424;-58
2021/07/20 03:21:37;;;;;;;2.42;1.00;;;;;;;14.18;100.00;100266.44;5068839;28;20071;-58
2021/07/20 03:24:42;;;;;;;1.95;0.98;;;;;;;14.10;100.00;100258.91;5071127;28;20059;-57
2021/07/20 03:27:46;;;;;;;2.42;0.70;;;;;;;14.08;100.00;100261.44;5070784;28;20055;-56
2021/07/20 03:30:50;;;;;;;2.42;0.65;;;;;;;14.05;100.00;100268.03;5070980;28;20075;-57
2021/07/20 03:33:55;;;;;;;2.53;0.82;;;;;;;14.02;100.00;100263.41;5070829;28;20381;-57
2021/07/20 03:36:59;;;;;;;3.35;1.10;;;;;;;13.97;100.00;100275.31;5069822;28;20065;-58
2021/07/20 03:40:03;;;;;;;4.72;0.98;;;;;;;13.92;100.00;100276.00;5070926;28;20619;-57
2021/07/20 03:43:08;;;;;;;2.25;0.70;;;;;;;13.94;100.00;100267.88;5070676;28;20114;-58
2021/07/20 03:46:14;;;;;;;0.77;0.17;;;;;;;13.96;100.00;100265.38;5070667;28;20063;-57
2021/07/20 03:49:18;;;;;;;3.42;1.17;;;;;;;13.92;100.00;100271.19;5070546;28;20055;-57
2021/07/20 03:52:23;;;;;;;2.67;0.95;;;;;;;13.95;100.00;100270.19;5070836;28;20063;-57
2021/07/20 03:55:26;;;;;;;1.13;0.80;;;;;;;13.96;100.00;100274.56;5070871;28;20052;-57
2021/07/20 03:58:35;;;;;;;5.47;1.40;;;;;;;14.01;100.00;100275.88;5070686;28;20051;-58
2021/07/20 04:01:40;;;;;;;11.07;0.98;;;;;;;13.99;100.00;100270.00;5070868;28;20056;-57
2021/07/20 04:04:46;;;;;;;5.28;0.88;;;;;;;13.94;100.00;100267.88;5070524;28;20052;-57
2021/07/20 04:07:52;;;;;;;1.55;0.73;;;;;;;13.96;100.00;100276.56;5070755;28;20102;-57
2021/07/20 04:10:57;;;;;;;2.47;0.85;;;;;;;13.97;100.00;100272.53;5072555;28;20051;-57
2021/07/20 04:14:03;;;;;;;4.72;1.40;;;;;;;14.00;100.00;100277.91;5073727;28;20071;-57
2021/07/20 04:17:08;;;;;;;1.05;0.50;;;;;;;14.00;100.00;100274.34;5074153;28;20067;-57
2021/07/20 04:20:13;;;;;;;2.25;0.35;;;;;;;14.00;100.00;100274.34;5074277;28;20063;-57
2021/07/20 04:23:22;;;;;;;3.50;0.50;;;;;;;13.98;100.00;100285.25;5073643;28;20048;-57
2021/07/20 04:26:26;;;;;;;3.42;0.73;;;;;;;14.00;100.00;100282.72;5074192;28;20060;-57
2021/07/20 04:29:30;;;;;;;3.13;0.85;;;;;;;14.05;100.00;100274.41;5073967;28;20064;-58
2021/07/20 04:32:39;;;;;;;6.15;1.02;;;;;;;14.03;100.00;100278.97;5073946;28;20048;-58
2021/07/20 04:35:44;;;;;;;7.63;0.70;;;;;;;14.06;100.00;100275.16;5074044;28;20051;-58
2021/07/20 04:38:49;;;;;;;5.18;0.65;;;;;;;14.16;100.00;100268.94;5073596;28;20059;-58
2021/07/20 04:41:53;;;;;;;3.28;1.15;;;;;;;14.20;100.00;100274.34;5073922;28;20071;-58
2021/07/20 04:44:57;;;;;;;0.80;0.50;;;;;;;14.24;100.00;100275.69;5073593;28;20397;-58
2021/07/20 04:48:00;;;;;;;1.73;1.08;;;;;;;14.32;100.00;100284.44;5073583;28;20040;-58
2021/07/20 04:51:04;;;;;;;1.67;0.65;;;;;;;14.33;100.00;100278.38;5073454;28;20075;-57
2021/07/20 04:54:10;;;;;;;2.22;1.23;;;;;;;14.38;100.00;100277.66;5073460;28;20492;-58
2021/07/20 04:57:13;;;;;;;4.13;0.75;;;;;;;14.39;100.00;100281.22;5073345;28;20059;-58
2021/07/20 05:00:17;;;;;;;1.08;0.47;;;;;;;14.42;100.00;100275.41;5073275;28;20055;-58
2021/07/20 05:03:23;;;;;;;2.88;0.40;;;;;;;14.49;100.00;100279.81;5072639;28;20052;-58
2021/07/20 05:06:28;;;;;;;1.00;0.52;;;;;;;14.55;100.00;100277.09;5073076;28;20508;-58
2021/07/20 05:09:34;;;;;;;0.40;0.28;;;;;;;14.57;100.00;100272.53;5073405;28;20071;-58
2021/07/20 05:12:39;;;;;;;1.10;0.35;;;;;;;14.60;100.00;100277.13;5073378;28;20512;-58
2021/07/20 05:15:47;;;;;;;2.95;1.00;;;;;;;14.65;100.00;100281.28;5073032;28;20393;-58
2021/07/20 05:18:52;;;;;;;0.88;0.40;;;;;;;14.71;100.00;100280.06;5072777;28;20056;-58
2021/07/20 05:21:56;;;;;;;2.10;0.70;;;;;;;14.77;100.00;100278.09;5072353;28;20408;-59
2021/07/20 05:25:02;;;;;;;1.98;1.00;;;;;;;14.82;100.00;100276.59;5072744;28;20063;-58
2021/07/20 05:28:10;;;;;;;6.55;0.40;;;;;;;14.86;100.00;100279.94;5072794;28;20405;-57
2021/07/20 05:31:14;;;;;;;3.78;0.82;;;;;;;14.91;100.00;100282.06;5072771;28;20055;-59
2021/07/20 05:34:19;;;;;;;2.42;0.60;;;;;;;14.91;100.00;100282.81;5072255;28;20067;-58
2021/07/20 05:37:23;;;;;;;2.75;0.75;;;;;;;14.95;100.00;100277.75;5072712;28;20051;-58
2021/07/20 05:40:27;;;;;;;2.58;0.85;;;;;;;14.94;100.00;100281.81;5069756;28;20055;-58
2021/07/20 05:43:33;;;;;;;2.45;1.17;;;;;;;14.98;100.00;100273.97;5072340;28;20052;-57
2021/07/20 05:46:38;;;;;;;2.70;0.88;;;;;;;15.04;100.00;100286.03;5072562;28;20052;-58
2021/07/20 05:49:42;;;;;;;2.47;1.05;;;;;;;15.09;100.00;100285.28;5072630;28;20051;-58
2021/07/20 05:52:49;;;;;;;4.05;0.20;;;;;;;15.18;100.00;100284.38;5072183;28;20059;-57
2021/07/20 05:55:56;;;;;;;4.28;1.05;;;;;;;15.24;100.00;100281.59;5072265;28;20067;-57
2021/07/20 05:59:01;;;;;;;2.35;1.02;;;;;;;15.35;100.00;100276.06;5072128;28;20050;-58
2021/07/20 06:02:08;;;;;;;5.55;1.00;;;;;;;15.43;100.00;100282.78;5072164;28;20563;-57
2021/07/20 06:05:14;;;;;;;2.88;1.00;;;;;;;15.52;100.00;100279.81;5072224;28;20079;-57
2021/07/20 06:08:19;;;;;;;5.35;0.95;;;;;;;15.59;100.00;100280.09;5071455;28;20119;-57
2021/07/20 06:11:23;;;;;;;2.20;1.10;;;;;;;15.66;100.00;100284.50;5072351;28;20055;-58
2021/07/20 06:14:29;;;;;;;5.25;1.05;;;;;;;15.79;100.00;100287.63;5052069;28;20056;-58
2021/07/20 06:17:33;;;;;;;3.35;1.77;;;;;;;15.89;100.00;100280.56;5052076;28;20080;-58
2021/07/20 06:20:37;;;;;;;4.95;1.25;;;;;;;15.97;100.00;100281.63;5051903;28;20064;-58
2021/07/20 06:23:43;;;;;;;2.15;0.70;;;;;;;16.14;100.00;100284.53;5057273;28;20551;-58
2021/07/20 06:26:47;;;;;;;3.17;0.98;;;;;;;16.34;100.00;100287.94;5069436;28;20119;-58
2021/07/20 06:29:55;;;;;;;2.22;1.20;;;;;;;16.48;100.00;100278.53;5066716;28;20476;-58
2021/07/20 06:32:59;;;;;;;5.80;1.30;;;;;;;16.57;100.00;100278.34;5068594;28;20063;-58
2021/07/20 06:36:03;;;;;;;3.40;1.05;;;;;;;16.64;100.00;100272.25;5066633;28;20507;-59
2021/07/20 06:39:07;;;;;;;1.40;0.85;;;;;;;16.80;100.00;100286.84;5051474;28;20060;-58
2021/07/20 06:42:12;;;;;;;3.95;1.10;;;;;;;16.94;100.00;100280.22;5050797;28;20079;-58
2021/07/20 06:45:16;;;;;;;3.17;1.00;;;;;;;17.05;100.00;100283.03;5051405;28;20068;-58
2021/07/20 06:48:21;;;;;;;8.98;1.25;;;;;;;17.16;100.00;100283.84;5050872;28;20071;-58
2021/07/20 06:51:27;;;;;;;5.22;1.00;;;;;;;17.26;100.00;100287.19;5051642;28;20060;-58
2021/07/20 06:54:31;;;;;;;3.08;1.35;;;;;;;17.40;100.00;100281.28;5051343;28;20052;-49
2021/07/20 06:57:37;;;;;;;3.47;0.88;;;;;;;17.53;100.00;100289.25;5056371;28;20051;-49
2021/07/20 07:00:47;;;;;;;2.30;0.70;;;;;;;17.67;100.00;100288.19;5058434;28;20060;-49
2021/07/20 07:04:15;;;;;;;4.15;0.70;;;;;;;17.78;100.00;100287.44;5060240;28;20076;-49
2021/07/20 07:07:20;;;;;;;10.43;1.45;;;;;;;17.84;100.00;100286.13;5050672;28;20055;-48
2021/07/20 07:10:24;;;;;;;2.22;0.93;;;;;;;17.98;100.00;100299.16;5051483;28;20044;-49
2021/07/20 07:13:32;;;;;;;4.28;0.88;;;;;;;18.11;100.00;100290.16;5065240;28;20520;-48
2021/07/20 07:16:38;;;;;;;4.03;1.40;;;;;;;18.25;100.00;100296.78;5070250;28;20083;-48
2021/07/20 07:19:46;;;;;;;6.30;1.02;;;;;;;18.39;100.00;100296.47;5070992;28;20059;-49
2021/07/20 07:22:50;;;;;;;4.15;0.70;;;;;;;18.61;100.00;100293.56;5071109;28;20060;-49
2021/07/20 07:25:58;;;;;;;2.30;0.73;;;;;;;18.73;100.00;100291.47;5066064;28;20059;-49
2021/07/20 07:29:01;;;;;;;5.65;1.35;;;;;;;18.78;100.00;100297.06;5067157;28;20051;-48
2021/07/20 07:32:05;;;;;;;5.57;1.27;;;;;;;18.90;100.00;100294.97;5071047;28;20079;-49
2021/07/20 07:35:10;;;;;;;5.85;1.17;;;;;;;19.03;100.00;100308.47;5061227;28;20047;-48
2021/07/20 07:38:17;;;;;;;1.48;0.73;;;;;;;19.10;100.00;100297.38;5067062;28;20072;-49
2021/07/20 07:41:23;;;;;;;6.25;0.73;;;;;;;19.22;100.00;100298.84;5070318;28;20051;-48
2021/07/20 07:44:27;;;;;;;11.77;1.55;;;;;;;19.34;100.00;100297.50;5071052;28;20400;-48
2021/07/20 07:47:32;;;;;;;2.42;0.60;;;;;;;19.50;100.00;100295.81;5074463;28;20044;-48
2021/07/20 07:50:36;;;;;;;2.78;0.57;;;;;;;19.65;100.00;100305.44;5074759;28;20412;-48
2021/07/20 07:53:40;;;;;;;7.13;1.35;;;;;;;19.84;100.00;100304.78;5074788;28;20051;-48
2021/07/20 07:56:46;;;;;;;6.68;1.27;;;;;;;19.97;100.00;100304.88;5067223;28;20056;-58
2021/07/20 07:59:54;;;;;;;3.95;0.60;;;;;;;20.14;100.00;100292.09;5073853;28;20075;-57
2021/07/20 08:03:01;;;;;;;3.45;1.50;;;;;;;20.30;100.00;100299.66;5074496;28;20055;-57
2021/07/20 08:06:06;;;;;;;3.50;0.98;;;;;;;20.44;100.00;100297.69;5074586;28;20079;-58
2021/07/20 08:09:11;;;;;;;2.05;0.85;;;;;;;20.55;100.00;100291.91;5073742;28;20067;-57
2021/07/20 08:12:15;;;;;;;3.97;0.88;;;;;;;20.65;100.00;100290.22;5074593;28;20091;-57
2021/07/20 08:15:19;;;;;;;4.55;1.10;;;;;;;20.83;100.00;100292.28;5073785;28;20055;-58
2021/07/20 08:18:24;;;;;;;3.10;0.98;;;;;;;21.00;100.00;100283.56;5074572;28;20055;-58
2021/07/20 08:21:28;;;;;;;3.92;0.70;;;;;;;21.23;100.00;100281.16;5074522;28;20063;-58
2021/07/20 08:24:34;;;;;;;1.38;0.77;;;;;;;21.44;100.00;100282.13;5073581;28;20055;-58
2021/07/20 08:27:45;;;;;;;2.45;0.45;;;;;;;21.64;100.00;100275.81;5073643;28;20063;-58
2021/07/20 08:30:51;;;;;;;8.10;0.88;;;;;;;21.89;100.00;100280.03;5073848;28;20067;-59
2021/07/20 08:34:13;;;;;;;4.57;1.10;;;;;;;21.99;100.00;100278.31;5073730;28;20048;-58
2021/07/20 08:37:18;;;;;;;2.22;0.47;;;;;;;22.19;100.00;100260.63;5071297;28;20400;-58
2021/07/20 08:40:54;;;;;;;3.95;1.23;;;;;;;22.54;100.00;100260.13;5073709;28;20051;-58
2021/07/20 08:44:36;;;;;;;6.13;0.57;;;;;;;22.79;100.00;100257.03;5069889;28;20064;-58
2021/07/20 08:48:04;;;;;;;3.10;0.63;;;;;;;23.14;100.00;100260.09;5049339;28;20075;-58
2021/07/20 08:51:18;;;;;;;0.98;0.22;;;;;;;23.46;100.00;100256.22;5071864;28;20048;-58
2021/07/20 08:54:42;;;;;;;2.10;0.47;;;;;;;23.67;100.00;100254.88;5072331;28;20056;-58
2021/07/20 08:57:55;;;;;;;1.00;0.32;;;;;;;23.93;100.00;100251.09;5071719;28;20063;-59
2021/07/20 09:01:04;;;;;;;1.00;0.55;;;;;;;24.30;100.00;100255.53;5072345;28;20052;-59
2021/07/20 09:04:15;;;;;;;1.20;0.65;;;;;;;24.64;100.00;100244.66;5071686;28;20067;-58
2021/07/20 09:07:25;;;;;;;9.23;1.33;;;;;;;24.87;100.00;100254.06;5071930;28;20055;-59
2021/07/20 09:10:44;;;;;;;1.98;0.73;;;;;;;24.94;100.00;100241.94;5072616;28;20043;-59
2021/07/20 09:13:54;;;;;;;2.55;0.40;;;;;;;24.92;100.00;100247.44;5073105;28;20056;-59
2021/07/20 09:17:08;;;;;;;5.70;0.40;;;;;;;24.93;100.00;100248.94;5073021;28;20052;-59
2021/07/20 09:20:16;;;;;;;2.03;0.25;;;;;;;24.96;100.00;100241.34;5073327;28;20075;-59
2021/07/20 09:23:35;;;;;;;0.88;0.30;;;;;;;25.11;100.00;100245.00;5072363;28;20051;-59
2021/07/20 09:26:50;;;;;;;2.53;0.70;;;;;;;25.24;100.00;100256.22;5073089;28;20059;-59
2021/07/20 09:29:57;;;;;;;1.30;0.20;;;;;;;25.35;100.00;100252.25;5069861;28;20062;-59
2021/07/20 09:33:20;;;;;;;6.40;0.25;;;;;;;25.28;100.00;100245.19;5072446;28;20089;-59
2021/07/20 09:36:47;;;;;;;4.53;0.40;;;;;;;25.32;100.00;100254.13;5071802;28;20047;-60
2021/07/20 09:40:06;;;;;;;6.85;0.65;;;;;;;25.33;100.00;100249.97;5071711;28;20079;-59
2021/07/20 09:43:30;;;;;;;4.63;0.52;;;;;;;25.37;100.00;100244.66;5065821;28;20174;-59
2021/07/20 09:47:06;;;;;;;2.05;0.10;;;;;;;25.50;100.00;100247.34;5065233;28;20060;-59
2021/07/20 09:50:15;;;;;;;2.00;0.47;;;;;;;25.49;100.00;100245.81;5044534;28;20413;-59
2021/07/20 09:53:56;;;;;;;2.45;0.20;;;;;;;25.53;100.00;100251.16;5081446;28;20103;-58
2021/07/20 09:57:16;;;;;;;1.35;0.10;;;;;;;25.59;100.00;100237.44;5070535;28;20045;-59
2021/07/20 10:00:32;;;;;;;2.33;0.52;;;;;;;25.69;100.00;100243.31;5057020;28;20071;-59
2021/07/20 10:03:56;;;;;;;1.30;0.30;;;;;;;25.77;100.00;100246.94;5071598;28;20075;-59
2021/07/20 10:07:06;;;;;;;2.13;0.20;;;;;;;25.83;100.00;100245.41;5071243;28;20075;-59
2021/07/20 10:10:13;;;;;;;1.85;0.60;;;;;;;25.93;100.00;100248.44;5071821;28;20106;-59
2021/07/20 10:13:33;;;;;;;2.00;0.20;;;;;;;26.03;100.00;100246.53;5071329;28;20558;-53
2021/07/20 10:17:02;;;;;;;1.90;0.17;;;;;;;26.06;100.00;100246.13;5066233;28;20056;-61
2021/07/20 10:20:20;;;;;;;0.88;0.35;;;;;;;26.08;100.00;100254.13;5059566;28;20405;-59
2021/07/20 10:23:53;;;;;;;1.27;0.30;;;;;;;26.11;100.00;100244.44;5067031;28;20064;-59
2021/07/20 10:27:13;;;;;;;4.88;0.40;;;;;;;26.21;100.00;100246.13;5060494;28;20051;-59
2021/07/20 10:30:17;;;;;;;0.75;0.30;;;;;;;26.26;100.00;100245.16;5071370;28;20056;-59
2021/07/20 10:33:25;;;;;;;0.85;0.10;;;;;;;26.27;100.00;100243.03;5070880;28;20064;-59
2021/07/20 10:36:37;;;;;;;1.67;0.40;;;;;;;26.35;100.00;100243.81;5071705;28;20055;-59
2021/07/20 10:39:47;;;;;;;4.03;0.25;;;;;;;26.43;100.00;100246.63;5071804;28;20052;-60
2021/07/20 10:42:57;;;;;;;2.60;0.25;;;;;;;26.55;100.00;100248.47;5071649;28;20135;-59
2021/07/20 10:46:04;;;;;;;2.58;0.50;;;;;;;26.58;100.00;100238.75;5070683;28;20067;-59
2021/07/20 10:49:26;;;;;;;2.17;0.30;;;;;;;26.63;100.00;100240.63;5071743;28;20060;-61
2021/07/20 10:52:45;;;;;;;0.93;0.20;;;;;;;26.68;100.00;100242.50;5070263;28;20064;-59
2021/07/20 10:55:53;;;;;;;1.17;0.30;;;;;;;26.73;100.00;100243.66;5071070;28;20063;-61
2021/07/20 10:59:24;;;;;;;4.93;0.45;;;;;;;26.82;100.00;100238.09;5071258;28;20526;-60
2021/07/20 11:02:48;;;;;;;1.77;0.68;;;;;;;26.92;100.00;100238.22;5069051;28;20063;-49
2021/07/20 11:05:52;;;;;;;3.85;0.52;;;;;;;26.98;100.00;100236.63;5071128;28;20055;-49
2021/07/20 11:09:00;;;;;;;1.23;0.38;;;;;;;26.98;100.00;100242.34;5063034;28;20448;-49
2021/07/20 11:12:06;;;;;;;5.95;0.25;;;;;;;26.98;100.00;100239.50;5071200;28;20063;-49
2021/07/20 11:15:12;;;;;;;2.33;0.38;;;;;;;27.15;100.00;100238.06;5070879;28;20405;-49
2021/07/20 11:18:17;;;;;;;1.05;0.10;;;;;;;27.20;100.00;100243.53;5070919;28;20060;-49
2021/07/20 11:21:24;;;;;;;5.22;0.40;;;;;;;27.31;100.00;100239.50;5072710;28;20056;-49
2021/07/20 11:24:29;;;;;;;5.50;0.45;;;;;;;27.32;100.00;100241.00;5065507;28;20523;-49
2021/07/20 11:27:39;;;;;;;0.88;0.20;;;;;;;27.31;100.00;100236.63;5075330;28;20055;-49
2021/07/20 11:30:44;;;;;;;1.65;0.63;;;;;;;27.12;100.00;100228.53;5075047;28;20509;-49
2021/07/20 11:34:07;;;;;;;2.97;0.30;;;;;;;27.05;100.00;100238.69;5074846;28;20055;-49
2021/07/20 11:37:21;;;;;;;1.85;0.30;;;;;;;27.21;100.00;100235.72;5075131;28;20055;-49
2021/07/20 11:40:33;;;;;;;2.80;0.50;;;;;;;27.33;100.00;100236.81;5073579;28;20201;-49
2021/07/20 11:43:48;;;;;;;1.17;0.50;;;;;;;27.43;100.00;100234.84;5075264;28;20059;-49
2021/07/20 11:46:58;;;;;;;3.15;0.60;;;;;;;27.50;100.00;100234.03;5074175;28;20051;-49
2021/07/20 11:50:06;;;;;;;;;;;;;;;27.71;100.00;100228.66;5075633;28;20055;-49
2021/07/20 11:53:31;;;;;;;1.58;0.25;;;;;;;27.89;100.00;100240.91;5074863;28;19916;-49
2021/07/20 11:57:08;;;;;;;4.25;0.47;;;;;;;27.97;100.00;100236.66;5074319;28;20056;-49
2021/07/20 12:00:38;;;;;;;1.05;0.20;;;;;;;27.99;100.00;100233.97;5073794;28;20389;-49
2021/07/20 12:04:04;;;;;;;4.10;0.35;;;;;;;27.95;100.00;100244.28;5054320;28;20045;-49
2021/07/20 12:07:31;;;;;;;3.47;0.25;;;;;;;27.92;100.00;100236.84;5054322;28;20071;-49
2021/07/20 12:10:44;;;;;;;1.90;0.82;;;;;;;27.98;100.00;100237.41;5053669;28;20505;-49
2021/07/20 12:13:49;;;;;;;3.13;0.50;;;;;;;27.98;100.00;100232.44;5066899;28;20059;-49
2021/07/20 12:16:54;;;;;;;3.22;0.40;;;;;;;28.12;100.00;100233.63;5072169;28;20056;-49
2021/07/20 12:19:58;;;;;;;1.73;0.40;;;;;;;28.19;100.00;100235.66;5068223;28;20056;-49
2021/07/20 12:23:04;;;;;;;2.42;0.50;;;;;;;28.31;100.00;100228.06;5074129;28;20055;-49
2021/07/20 12:26:09;;;;;;;4.50;0.52;;;;;;;28.41;100.00;100239.59;5073844;28;20055;-49
2021/07/20 12:29:15;;;;;;;1.75;0.10;;;;;;;28.33;100.00;100239.69;5072430;28;20599;-49
2021/07/20 12:32:18;;;;;;;5.03;0.30;;;;;;;28.25;100.00;100241.13;5067115;28;20508;-49
2021/07/20 12:35:23;;;;;;;2.08;0.35;;;;;;;28.19;100.00;100229.94;5073838;28;20051;-49
2021/07/20 12:38:27;;;;;;;1.38;0.57;;;;;;;28.21;100.00;100235.81;5084897;28;20052;-49
2021/07/20 12:41:30;;;;;;;3.15;0.65;;;;;;;28.30;100.00;100229.41;5074113;28;20056;-48
2021/07/20 12:44:35;;;;;;;3.42;0.20;;;;;;;28.47;100.00;100220.03;5084753;28;20048;-49
2021/07/20 12:47:41;;;;;;;2.28;0.80;;;;;;;28.67;100.00;100233.19;5074017;28;20409;-48
2021/07/20 12:50:45;;;;;;;2.08;0.45;;;;;;;28.64;100.00;100227.88;5073674;28;20397;-49
2021/07/20 12:53:50;;;;;;;0.80;0.22;;;;;;;28.58;100.00;100235.97;5073671;28;20063;-49
2021/07/20 12:56:54;;;;;;;3.78;0.70;;;;;;;28.66;100.00;100236.63;5073520;28;20555;-49
2021/07/20 12:59:58;;;;;;;6.13;0.30;;;;;;;28.58;100.00;100233.09;5084036;28;20060;-49
2021/07/20 13:03:07;;;;;;;3.92;0.43;;;;;;;28.52;100.00;100231.22;5073378;28;20051;-50
2021/07/20 13:06:18;;;;;;;;;;;;;;;28.59;100.00;100234.63;5073544;28;20424;-49
2021/07/20 13:09:21;;;;;;;3.80;0.90;;;;;;;28.87;100.00;100223.31;5072532;28;19916;-49
2021/07/20 13:12:25;;;;;;;5.00;0.57;;;;;;;28.88;100.00;100238.44;5073148;28;20055;-49
2021/07/20 13:15:29;;;;;;;4.00;0.30;;;;;;;28.83;100.00;100236.56;5073046;28;20051;-50
2021/07/20 13:18:34;;;;;;;1.25;0.60;;;;;;;28.77;100.00;100236.84;5073121;28;20048;-49
2021/07/20 13:21:40;;;;;;;2.90;0.47;;;;;;;28.74;100.00;100231.56;5072974;28;20051;-49
2021/07/20 13:24:43;;;;;;;1.30;0.20;;;;;;;28.69;100.00;100226.84;5073004;28;20516;-50
2021/07/20 13:27:49;;;;;;;3.63;0.45;;;;;;;28.57;100.00;100223.75;5072952;28;20052;-50
2021/07/20 13:30:59;;;;;;;3.65;0.40;;;;;;;28.49;100.00;100241.03;5072554;28;20055;-50
2021/07/20 13:34:03;;;;;;;1.40;0.43;;;;;;;28.45;100.00;100229.22;5072731;28;20048;-50
2021/07/20 13:37:08;;;;;;;1.15;0.20;;;;;;;28.41;100.00;100234.59;5073064;28;20071;-51
2021/07/20 13:40:14;;;;;;;1.58;0.22;;;;;;;28.28;100.00;100220.66;5072867;28;20507;-51
2021/07/20 13:43:19;;;;;;;4.43;0.73;;;;;;;28.24;100.00;100225.28;5071936;28;20051;-51
2021/07/20 13:46:24;;;;;;;3.15;0.20;;;;;;;28.33;100.00;100225.34;5073043;28;20060;-50
2021/07/20 13:49:30;;;;;;;2.33;0.15;;;;;;;28.51;100.00;100226.09;5072874;28;20071;-52
2021/07/20 13:52:36;;;;;;;0.98;0.10;;;;;;;28.65;100.00;100230.16;5072555;28;20052;-51
2021/07/20 13:55:47;;;;;;;5.35;0.30;;;;;;;28.62;100.00;100236.31;5071931;28;20051;-52
2021/07/20 13:58:51;;;;;;;2.25;0.20;;;;;;;28.65;100.00;100230.16;5072533;28;20051;-50
2021/07/20 14:01:55;;;;;;;1.65;0.25;;;;;;;28.70;100.00;100236.94;5072348;28;20059;-49
2021/07/20 14:04:59;;;;;;;1.33;0.25;;;;;;;28.72;100.00;100240.00;5071745;28;20055;-49
2021/07/20 14:08:05;;;;;;;2.17;0.50;;;;;;;28.72;100.00;100240.00;5072533;28;20071;-49
2021/07/20 14:11:08;;;;;;;0.93;0.25;;;;;;;28.65;100.00;100240.84;5072101;28;20531;-50
2021/07/20 14:14:14;;;;;;;0.80;0.30;;;;;;;28.64;100.00;100242.19;5052012;28;20048;-50
2021/07/20 14:17:21;;;;;;;2.38;0.28;;;;;;;28.37;100.00;100240.00;5052255;28;20060;-49
2021/07/20 14:20:35;;;;;;;1.85;0.50;;;;;;;27.79;100.00;100232.22;5067825;28;20055;-49
2021/07/20 14:23:40;;;;;;;3.45;0.40;;;;;;;27.82;100.00;100236.00;5071998;28;20052;-49
2021/07/20 14:26:52;;;;;;;1.40;0.30;;;;;;;27.96;100.00;100235.09;5071630;28;20055;-49
2021/07/20 14:29:57;;;;;;;4.80;0.43;;;;;;;28.16;100.00;100245.41;5058230;28;20056;-50